createdAt,value
2023-05-24T00:00:31.970Z,53.8028
2023-05-24T00:01:33.015Z,53.7661
2023-05-24T00:02:34.148Z,53.7356
2023-05-24T00:03:35.429Z,53.6320
2023-05-24T00:04:36.394Z,53.5691
2023-05-24T00:05:37.408Z,53.5652
2023-05-24T00:06:38.474Z,53.5030
2023-05-24T00:07:39.593Z,53.3964
2023-05-24T00:08:40.670Z,53.2394
2023-05-24T00:09:41.779Z,53.1671
2023-05-24T00:10:43.058Z,53.2546
2023-05-24T00:11:43.957Z,53.3108
2023-05-24T00:12:45.061Z,53.3635
2023-05-24T00:13:46.156Z,53.3129
2023-05-24T00:14:47.315Z,53.2481
2023-05-24T00:15:48.358Z,53.2275
2023-05-24T00:16:49.473Z,53.0689
2023-05-24T00:17:50.606Z,53.0173
2023-05-24T00:18:51.619Z,53.0069
2023-05-24T00:19:52.772Z,53.0162
2023-05-24T00:20:53.825Z,53.1331
2023-05-24T00:21:54.896Z,53.0678
2023-05-24T00:22:56.010Z,53.0118
2023-05-24T00:23:57.088Z,53.0383
2023-05-24T00:24:58.181Z,53.1117
2023-05-24T00:25:59.322Z,53.1141
2023-05-24T00:27:00.386Z,53.0931
2023-05-24T00:28:01.486Z,53.1778
2023-05-24T00:29:02.570Z,53.1439
2023-05-24T00:30:03.668Z,53.1428
2023-05-24T00:31:04.763Z,53.0416
2023-05-24T00:32:05.908Z,52.8972
2023-05-24T00:33:06.983Z,52.7243
2023-05-24T00:34:08.033Z,52.7221
2023-05-24T00:35:09.132Z,52.8291
2023-05-24T00:36:10.231Z,52.8334
2023-05-24T00:37:11.309Z,52.7937
2023-05-24T00:38:12.400Z,52.7492
2023-05-24T00:39:13.498Z,52.7198
2023-05-24T00:40:14.574Z,52.6376
2023-05-24T00:41:15.684Z,52.6295
2023-05-24T00:42:16.770Z,52.6859
2023-05-24T00:43:17.879Z,52.7173
2023-05-24T00:44:19.010Z,52.7805
2023-05-24T00:45:20.047Z,52.7588
2023-05-24T00:46:21.176Z,52.6895
2023-05-24T00:47:22.271Z,52.5734
2023-05-24T00:48:23.326Z,52.4630
2023-05-24T00:49:24.429Z,52.3983
2023-05-24T00:50:25.555Z,52.3835
2023-05-24T00:51:26.610Z,52.5269
2023-05-24T00:52:27.710Z,52.6041
2023-05-24T00:53:28.794Z,52.5760
2023-05-24T00:54:29.867Z,52.4455
2023-05-24T00:55:30.977Z,52.3759
2023-05-24T00:56:32.101Z,52.3060
2023-05-24T00:57:33.149Z,52.3307
2023-05-24T00:58:34.253Z,52.3503
2023-05-24T00:59:35.367Z,52.3519
2023-05-24T01:00:36.449Z,52.3618
2023-05-24T01:01:37.656Z,52.4181
2023-05-24T01:02:38.773Z,52.5241
2023-05-24T01:03:39.872Z,52.5145
2023-05-24T01:04:40.813Z,52.4914
2023-05-24T01:05:41.939Z,52.5100
2023-05-24T01:06:43.034Z,52.5367
2023-05-24T01:07:44.110Z,52.5202
2023-05-24T01:08:45.215Z,52.4733
2023-05-24T01:09:46.304Z,52.5147
2023-05-24T01:10:47.398Z,52.5389
2023-05-24T01:11:48.502Z,52.5640
2023-05-24T01:12:49.583Z,52.5459
2023-05-24T01:13:50.685Z,52.5609
2023-05-24T01:14:51.762Z,52.5394
2023-05-24T01:15:52.903Z,52.4796
2023-05-24T01:16:53.973Z,52.4537
2023-05-24T01:17:55.103Z,52.4901
2023-05-24T01:18:56.141Z,52.4599
2023-05-24T01:19:57.316Z,52.3845
2023-05-24T01:20:58.341Z,52.3916
2023-05-24T01:21:59.473Z,52.4185
2023-05-24T01:23:00.532Z,52.3778
2023-05-24T01:24:01.652Z,52.4108
2023-05-24T01:25:02.739Z,52.4219
2023-05-24T01:26:03.817Z,52.3770
2023-05-24T01:27:04.904Z,52.3236
2023-05-24T01:28:05.999Z,52.3084
2023-05-24T01:29:07.134Z,52.2907
2023-05-24T01:30:08.176Z,52.2258
2023-05-24T01:31:09.274Z,52.1179
2023-05-24T01:32:10.424Z,52.0534
2023-05-24T01:33:11.457Z,51.9375
2023-05-24T01:34:12.553Z,51.8609
2023-05-24T01:35:13.673Z,51.8170
2023-05-24T01:36:14.745Z,51.8158
2023-05-24T01:37:15.843Z,51.8339
2023-05-24T01:38:16.946Z,51.8400
2023-05-24T01:39:18.022Z,51.7937
2023-05-24T01:40:19.116Z,51.6960
2023-05-24T01:41:20.219Z,51.7305
2023-05-24T01:42:21.325Z,51.8109
2023-05-24T01:43:22.431Z,51.9131
2023-05-24T01:44:23.508Z,51.9753
2023-05-24T01:45:24.604Z,51.8670
2023-05-24T01:46:25.704Z,51.8036
2023-05-24T01:47:26.835Z,51.7112
2023-05-24T01:48:27.873Z,51.7059
2023-05-24T01:49:28.956Z,51.6254
2023-05-24T01:50:30.045Z,51.5661
2023-05-24T01:51:31.146Z,51.6115
2023-05-24T01:52:32.328Z,51.6099
2023-05-24T01:53:33.342Z,51.5496
2023-05-24T01:54:34.423Z,51.5087
2023-05-24T01:55:35.504Z,51.4133
2023-05-24T01:56:36.621Z,51.4316
2023-05-24T01:57:37.699Z,51.5556
2023-05-24T01:58:38.806Z,51.6944
2023-05-24T01:59:39.880Z,51.7354
2023-05-24T02:00:41.273Z,51.7772
2023-05-24T02:01:42.135Z,51.7605
2023-05-24T02:02:43.343Z,51.7282
2023-05-24T02:03:44.388Z,51.6473
2023-05-24T02:04:45.368Z,51.6357
2023-05-24T02:05:54.026Z,51.6320
2023-05-24T02:06:47.557Z,51.6620
2023-05-24T02:07:48.730Z,51.8112
2023-05-24T02:08:49.807Z,51.8069
2023-05-24T02:09:50.895Z,51.7362
2023-05-24T02:10:51.991Z,51.7594
2023-05-24T02:11:53.069Z,51.7910
2023-05-24T02:12:54.202Z,51.7909
2023-05-24T02:13:55.253Z,51.6315
2023-05-24T02:14:56.352Z,51.5652
2023-05-24T02:15:57.445Z,51.5207
2023-05-24T02:16:58.659Z,51.4998
2023-05-24T02:17:59.652Z,51.5600
2023-05-24T02:19:00.708Z,51.6078
2023-05-24T02:20:01.861Z,51.5749
2023-05-24T02:21:02.933Z,51.4650
2023-05-24T02:22:04.010Z,51.3818
2023-05-24T02:23:05.109Z,51.2611
2023-05-24T02:24:06.202Z,51.2024
2023-05-24T02:25:07.285Z,51.2833
2023-05-24T02:26:08.384Z,51.5480
2023-05-24T02:27:09.451Z,51.5268
2023-05-24T02:28:10.581Z,51.3246
2023-05-24T02:29:11.661Z,51.2493
2023-05-24T02:30:12.737Z,51.1673
2023-05-24T02:31:13.851Z,51.2362
2023-05-24T02:32:14.980Z,51.3185
2023-05-24T02:33:16.083Z,51.2955
2023-05-24T02:34:17.108Z,51.2880
2023-05-24T02:35:18.212Z,51.3134
2023-05-24T02:36:19.311Z,51.4372
2023-05-24T02:37:20.400Z,51.5370
2023-05-24T02:38:21.494Z,51.5726
2023-05-24T02:39:22.611Z,51.5275
2023-05-24T02:40:23.694Z,51.4423
2023-05-24T02:41:24.778Z,51.4114
2023-05-24T02:42:25.856Z,51.4528
2023-05-24T02:43:26.978Z,51.4943
2023-05-24T02:44:28.055Z,51.5430
2023-05-24T02:45:29.158Z,51.5561
2023-05-24T02:46:30.282Z,51.6019
2023-05-24T02:47:31.424Z,51.6861
2023-05-24T02:48:32.447Z,51.6611
2023-05-24T02:49:33.527Z,51.5854
2023-05-24T02:50:34.649Z,51.4406
2023-05-24T02:51:35.726Z,51.4470
2023-05-24T02:52:36.798Z,51.4977
2023-05-24T02:53:37.929Z,51.4916
2023-05-24T02:54:39.007Z,51.4785
2023-05-24T02:55:40.103Z,51.5140
2023-05-24T02:56:41.192Z,51.5006
2023-05-24T02:57:42.283Z,51.5089
2023-05-24T02:58:43.402Z,51.6172
2023-05-24T02:59:44.492Z,51.6235
2023-05-24T03:00:45.566Z,51.6596
2023-05-24T03:01:46.732Z,51.7417
2023-05-24T03:02:48.135Z,51.6610
2023-05-24T03:03:48.960Z,51.4488
2023-05-24T03:04:49.976Z,51.3184
2023-05-24T03:05:51.052Z,51.2050
2023-05-24T03:06:52.130Z,51.1625
2023-05-24T03:07:53.250Z,51.2614
2023-05-24T03:08:54.344Z,51.3444
2023-05-24T03:09:55.409Z,51.3248
2023-05-24T03:10:56.509Z,51.2936
2023-05-24T03:11:57.630Z,51.2726
2023-05-24T03:12:58.701Z,51.2871
2023-05-24T03:13:59.791Z,51.3939
2023-05-24T03:15:00.913Z,51.4674
2023-05-24T03:16:02.034Z,51.4929
2023-05-24T03:17:03.083Z,51.5784
2023-05-24T03:18:04.229Z,51.5595
2023-05-24T03:19:06.480Z,51.4834
2023-05-24T03:20:06.401Z,51.3774
2023-05-24T03:21:07.484Z,51.2626
2023-05-24T03:22:08.559Z,51.2138
2023-05-24T03:23:09.669Z,51.2016
2023-05-24T03:24:10.905Z,51.1689
2023-05-24T03:25:11.831Z,51.1449
2023-05-24T03:26:12.953Z,51.1697
2023-05-24T03:27:14.023Z,51.1996
2023-05-24T03:28:15.158Z,51.2012
2023-05-24T03:29:16.237Z,51.2157
2023-05-24T03:30:17.299Z,51.2487
2023-05-24T03:31:18.426Z,51.2452
2023-05-24T03:32:19.490Z,51.2645
2023-05-24T03:33:20.587Z,51.2674
2023-05-24T03:34:21.719Z,51.1264
2023-05-24T03:35:22.792Z,51.1180
2023-05-24T03:36:23.882Z,51.1869
2023-05-24T03:37:24.967Z,51.3667
2023-05-24T03:38:26.054Z,51.4966
2023-05-24T03:39:27.172Z,51.5598
2023-05-24T03:40:28.258Z,51.6339
2023-05-24T03:41:29.385Z,51.6075
2023-05-24T03:42:30.455Z,51.6337
2023-05-24T03:43:31.530Z,51.5651
2023-05-24T03:44:32.653Z,51.5356
2023-05-24T03:45:39.298Z,51.5172
2023-05-24T03:46:35.888Z,51.4653
2023-05-24T03:47:35.945Z,51.4373
2023-05-24T03:48:37.006Z,51.3869
2023-05-24T03:49:38.154Z,51.4228
2023-05-24T03:50:39.192Z,51.4215
2023-05-24T03:51:40.304Z,51.4260
2023-05-24T03:52:41.405Z,51.4272
2023-05-24T03:53:42.489Z,51.4947
2023-05-24T03:54:43.604Z,51.5991
2023-05-24T03:55:44.700Z,51.7033
2023-05-24T03:56:45.788Z,51.6181
2023-05-24T03:57:46.871Z,51.6322
2023-05-24T03:58:47.962Z,51.6526
2023-05-24T03:59:49.069Z,51.6013
2023-05-24T04:00:50.150Z,51.5380
2023-05-24T04:01:51.268Z,51.5328
2023-05-24T04:02:52.556Z,51.4360
2023-05-24T04:03:53.445Z,51.3668
2023-05-24T04:04:54.552Z,51.3323
2023-05-24T04:05:55.609Z,51.2265
2023-05-24T04:06:56.723Z,51.1687
2023-05-24T04:07:57.812Z,51.1595
2023-05-24T04:08:58.895Z,51.1628
2023-05-24T04:10:00.038Z,51.1719
2023-05-24T04:11:01.132Z,51.3696
2023-05-24T04:12:02.190Z,51.4037
2023-05-24T04:13:03.298Z,51.2979
2023-05-24T04:14:04.370Z,51.2334
2023-05-24T04:15:05.484Z,51.1907
2023-05-24T04:16:06.575Z,51.2000
2023-05-24T04:17:07.845Z,51.2353
2023-05-24T04:18:08.978Z,51.3479
2023-05-24T04:19:09.874Z,51.4908
2023-05-24T04:20:11.002Z,51.4730
2023-05-24T04:21:12.039Z,51.4708
2023-05-24T04:22:13.138Z,51.5121
2023-05-24T04:23:14.240Z,51.4972
2023-05-24T04:24:15.332Z,51.5191
2023-05-24T04:25:16.432Z,51.4945
2023-05-24T04:26:17.562Z,51.4536
2023-05-24T04:27:18.617Z,51.4865
2023-05-24T04:28:19.722Z,51.5500
2023-05-24T04:29:20.804Z,51.6034
2023-05-24T04:30:21.930Z,51.6587
2023-05-24T04:31:23.063Z,51.7133
2023-05-24T04:32:24.138Z,51.7606
2023-05-24T04:33:25.221Z,51.6665
2023-05-24T04:34:26.307Z,51.6056
2023-05-24T04:35:27.409Z,51.6928
2023-05-24T04:36:28.493Z,51.7253
2023-05-24T04:37:29.603Z,51.6032
2023-05-24T04:38:30.689Z,51.5033
2023-05-24T04:39:31.802Z,51.4905
2023-05-24T04:40:32.931Z,51.4885
2023-05-24T04:41:33.998Z,51.4894
2023-05-24T04:42:35.084Z,51.5540
2023-05-24T04:43:36.177Z,51.5545
2023-05-24T04:44:37.304Z,51.5697
2023-05-24T04:45:38.494Z,51.5468
2023-05-24T04:46:39.520Z,51.4911
2023-05-24T04:47:40.604Z,51.3493
2023-05-24T04:48:41.679Z,51.2544
2023-05-24T04:49:42.761Z,51.2879
2023-05-24T04:50:44.092Z,51.4539
2023-05-24T04:51:45.021Z,51.4559
2023-05-24T04:52:46.092Z,51.3758
2023-05-24T04:53:47.168Z,51.3399
2023-05-24T04:54:48.264Z,51.2416
2023-05-24T04:55:49.403Z,51.1325
2023-05-24T04:56:50.463Z,51.1390
2023-05-24T04:57:51.554Z,51.1132
2023-05-24T04:58:52.664Z,51.1553
2023-05-24T04:59:53.757Z,51.2351
2023-05-24T05:00:54.885Z,51.2378
2023-05-24T05:01:56.008Z,51.2409
2023-05-24T05:02:57.134Z,51.2669
2023-05-24T05:03:58.187Z,51.2398
2023-05-24T05:04:59.270Z,51.2423
2023-05-24T05:06:00.352Z,51.3823
2023-05-24T05:07:01.437Z,51.4464
2023-05-24T05:08:02.541Z,51.3717
2023-05-24T05:09:03.648Z,51.3939
2023-05-24T05:10:04.810Z,51.3563
2023-05-24T05:11:05.848Z,51.2838
2023-05-24T05:12:06.930Z,51.2927
2023-05-24T05:13:08.029Z,51.3019
2023-05-24T05:14:09.129Z,51.4566
2023-05-24T05:15:10.211Z,51.5116
2023-05-24T05:16:11.353Z,51.3811
2023-05-24T05:17:12.408Z,51.2115
2023-05-24T05:18:13.567Z,51.1059
2023-05-24T05:19:14.618Z,51.0283
2023-05-24T05:20:15.769Z,51.0472
2023-05-24T05:21:16.829Z,51.0529
2023-05-24T05:22:17.904Z,50.9430
2023-05-24T05:23:19.010Z,51.0399
2023-05-24T05:24:20.094Z,51.0796
2023-05-24T05:25:21.245Z,51.0228
2023-05-24T05:26:22.302Z,51.0006
2023-05-24T05:27:23.411Z,51.0061
2023-05-24T05:28:24.506Z,51.0191
2023-05-24T05:29:25.611Z,51.1570
2023-05-24T05:30:26.705Z,51.3562
2023-05-24T05:31:27.819Z,51.4349
2023-05-24T05:32:28.949Z,51.3326
2023-05-24T05:33:30.063Z,51.2379
2023-05-24T05:34:31.093Z,51.3836
2023-05-24T05:35:32.209Z,51.5516
2023-05-24T05:36:33.323Z,51.5752
2023-05-24T05:37:34.405Z,51.6196
2023-05-24T05:38:35.489Z,51.7310
2023-05-24T05:39:36.606Z,51.7204
2023-05-24T05:40:37.693Z,51.7088
2023-05-24T05:41:38.804Z,51.7155
2023-05-24T05:42:39.896Z,51.7207
2023-05-24T05:43:40.983Z,51.5971
2023-05-24T05:44:42.080Z,51.5523
2023-05-24T05:45:43.183Z,51.5506
2023-05-24T05:46:44.260Z,51.4726
2023-05-24T05:47:45.391Z,51.3831
2023-05-24T05:48:46.668Z,51.3468
2023-05-24T05:49:47.579Z,51.2473
2023-05-24T05:50:48.668Z,51.1602
2023-05-24T05:51:49.783Z,51.2253
2023-05-24T05:52:50.853Z,51.3084
2023-05-24T05:53:51.953Z,51.3329
2023-05-24T05:54:53.061Z,51.3385
2023-05-24T05:55:54.131Z,51.2924
2023-05-24T05:56:55.253Z,51.2704
2023-05-24T05:57:56.341Z,51.2218
2023-05-24T05:58:57.432Z,51.1467
2023-05-24T05:59:58.552Z,51.2128
2023-05-24T06:00:59.668Z,51.2212
2023-05-24T06:02:00.766Z,51.2252
2023-05-24T06:03:01.877Z,51.1896
2023-05-24T06:04:02.995Z,51.1357
2023-05-24T06:05:04.010Z,51.1024
2023-05-24T06:06:05.109Z,51.0680
2023-05-24T06:07:06.195Z,51.0435
2023-05-24T06:08:07.390Z,51.0299
2023-05-24T06:09:08.486Z,51.1076
2023-05-24T06:10:09.580Z,51.1071
2023-05-24T06:11:10.672Z,51.1236
2023-05-24T06:12:11.782Z,51.2711
2023-05-24T06:13:12.860Z,51.3941
2023-05-24T06:14:13.960Z,51.3707
2023-05-24T06:15:15.049Z,51.3707
2023-05-24T06:16:16.143Z,51.4552
2023-05-24T06:17:17.248Z,51.4520
2023-05-24T06:18:18.334Z,51.4547
2023-05-24T06:19:19.444Z,51.3465
2023-05-24T06:20:20.642Z,51.3194
2023-05-24T06:21:21.618Z,51.3796
2023-05-24T06:22:22.723Z,51.5452
2023-05-24T06:23:23.809Z,51.6880
2023-05-24T06:24:24.920Z,51.7326
2023-05-24T06:25:26.018Z,51.6711
2023-05-24T06:26:27.141Z,51.6061
2023-05-24T06:27:28.225Z,51.5127
2023-05-24T06:28:29.294Z,51.4802
2023-05-24T06:29:30.371Z,51.4349
2023-05-24T06:30:31.673Z,51.3222
2023-05-24T06:31:32.572Z,51.2582
2023-05-24T06:32:33.691Z,51.2501
2023-05-24T06:33:37.678Z,51.2269
2023-05-24T06:34:35.846Z,51.2059
2023-05-24T06:35:36.954Z,51.2124
2023-05-24T06:36:38.049Z,51.2148
2023-05-24T06:37:39.135Z,51.3066
2023-05-24T06:38:40.240Z,51.3532
2023-05-24T06:39:41.299Z,51.4249
2023-05-24T06:40:42.510Z,51.4438
2023-05-24T06:41:43.498Z,51.4125
2023-05-24T06:42:44.595Z,51.4716
2023-05-24T06:43:45.678Z,51.4881
2023-05-24T06:44:46.777Z,51.4530
2023-05-24T06:45:47.884Z,51.5004
2023-05-24T06:46:48.997Z,51.5769
2023-05-24T06:47:50.149Z,51.6840
2023-05-24T06:48:51.300Z,51.7042
2023-05-24T06:49:52.288Z,51.6118
2023-05-24T06:50:53.377Z,51.5785
2023-05-24T06:51:54.459Z,51.5162
2023-05-24T06:52:55.563Z,51.4872
2023-05-24T06:53:56.676Z,51.4144
2023-05-24T06:54:57.759Z,51.4188
2023-05-24T06:55:58.855Z,51.4150
2023-05-24T06:56:59.956Z,51.4173
2023-05-24T06:58:01.082Z,51.4862
2023-05-24T06:59:02.172Z,51.4917
2023-05-24T07:00:03.263Z,51.4307
2023-05-24T07:01:04.378Z,51.3278
2023-05-24T07:02:05.452Z,51.3154
2023-05-24T07:03:06.608Z,51.2965
2023-05-24T07:04:07.668Z,51.2762
2023-05-24T07:05:08.740Z,51.3444
2023-05-24T07:06:09.838Z,51.3853
2023-05-24T07:07:10.931Z,51.3483
2023-05-24T07:08:12.051Z,51.3465
2023-05-24T07:09:13.118Z,51.3563
2023-05-24T07:10:14.209Z,51.3337
2023-05-24T07:11:15.324Z,51.3560
2023-05-24T07:12:16.417Z,51.2623
2023-05-24T07:13:17.509Z,51.2666
2023-05-24T07:14:18.602Z,51.3071
2023-05-24T07:15:19.707Z,51.3510
2023-05-24T07:16:20.811Z,51.3198
2023-05-24T07:17:21.984Z,51.2892
2023-05-24T07:18:22.983Z,51.2909
2023-05-24T07:19:24.168Z,51.3087
2023-05-24T07:20:25.307Z,51.2320
2023-05-24T07:21:26.257Z,51.1347
2023-05-24T07:22:27.349Z,51.0385
2023-05-24T07:23:28.488Z,51.1097
2023-05-24T07:24:29.573Z,51.1036
2023-05-24T07:25:30.644Z,51.0780
2023-05-24T07:26:31.738Z,51.0531
2023-05-24T07:27:32.818Z,51.0389
2023-05-24T07:28:33.958Z,51.0029
2023-05-24T07:29:35.020Z,50.9314
2023-05-24T07:30:36.120Z,50.9911
2023-05-24T07:31:37.238Z,50.9049
2023-05-24T07:32:38.554Z,50.8669
2023-05-24T07:33:39.473Z,50.8145
2023-05-24T07:34:40.495Z,50.7112
2023-05-24T07:35:41.579Z,50.7142
2023-05-24T07:36:42.666Z,50.6546
2023-05-24T07:37:44.595Z,50.6010
2023-05-24T07:38:44.866Z,50.5381
2023-05-24T07:39:45.963Z,50.5176
2023-05-24T07:40:47.056Z,50.4567
2023-05-24T07:41:48.165Z,50.4939
2023-05-24T07:42:49.256Z,50.5557
2023-05-24T07:43:50.349Z,50.6745
2023-05-24T07:44:51.434Z,50.7000
2023-05-24T07:45:52.517Z,50.7408
2023-05-24T07:46:53.643Z,50.8269
2023-05-24T07:47:56.810Z,50.8639
2023-05-24T07:48:55.815Z,50.8679
2023-05-24T07:49:56.880Z,50.7927
2023-05-24T07:50:57.981Z,50.7412
2023-05-24T07:51:59.074Z,50.7002
2023-05-24T07:53:00.162Z,50.6894
2023-05-24T07:54:01.289Z,50.6729
2023-05-24T07:55:02.365Z,50.6497
2023-05-24T07:56:03.465Z,50.8012
2023-05-24T07:57:06.618Z,50.8555
2023-05-24T07:58:05.673Z,50.9324
2023-05-24T07:59:06.730Z,50.9352
2023-05-24T08:00:07.821Z,50.9002
2023-05-24T08:01:08.949Z,50.8564
2023-05-24T08:02:10.021Z,50.8430
2023-05-24T08:03:11.340Z,50.7771
2023-05-24T08:04:12.209Z,50.6990
2023-05-24T08:05:13.313Z,50.6383
2023-05-24T08:06:14.389Z,50.5595
2023-05-24T08:07:15.525Z,50.5570
2023-05-24T08:08:16.568Z,50.5194
2023-05-24T08:09:17.692Z,50.4762
2023-05-24T08:10:18.815Z,50.3986
2023-05-24T08:11:19.882Z,50.3510
2023-05-24T08:12:20.941Z,50.2063
2023-05-24T08:13:22.048Z,50.0722
2023-05-24T08:14:23.147Z,49.9235
2023-05-24T08:15:24.244Z,49.8395
2023-05-24T08:16:25.366Z,49.8411
2023-05-24T08:17:26.418Z,49.9048
2023-05-24T08:18:27.510Z,49.8770
2023-05-24T08:19:28.606Z,49.7676
2023-05-24T08:20:29.741Z,49.6727
2023-05-24T08:21:30.771Z,49.5217
2023-05-24T08:22:31.869Z,49.4121
2023-05-24T08:23:32.957Z,49.4054
2023-05-24T08:24:34.058Z,49.3418
2023-05-24T08:25:35.166Z,49.2372
2023-05-24T08:26:36.241Z,49.1662
2023-05-24T08:27:37.328Z,49.1180
2023-05-24T08:28:38.552Z,49.0925
2023-05-24T08:29:39.527Z,49.0170
2023-05-24T08:30:40.618Z,48.9467
2023-05-24T08:31:41.767Z,48.9239
2023-05-24T08:32:42.809Z,48.8663
2023-05-24T08:33:43.900Z,48.8455
2023-05-24T08:34:45.004Z,48.8089
2023-05-24T08:35:46.073Z,48.7832
2023-05-24T08:36:47.197Z,48.6998
2023-05-24T08:37:48.371Z,48.5873
2023-05-24T08:38:49.361Z,48.5409
2023-05-24T08:39:50.458Z,48.4528
2023-05-24T08:40:51.569Z,48.4633
2023-05-24T08:42:08.102Z,48.4022
2023-05-24T08:42:54.712Z,48.2650
2023-05-24T08:43:54.828Z,48.1883
2023-05-24T08:44:55.923Z,48.1597
2023-05-24T08:45:57.031Z,48.0183
2023-05-24T08:46:58.182Z,47.8536
2023-05-24T08:47:59.313Z,47.7983
2023-05-24T08:49:00.310Z,47.7966
2023-05-24T08:50:01.380Z,47.6511
2023-05-24T08:51:02.469Z,47.5261
2023-05-24T08:52:03.559Z,47.4037
2023-05-24T08:53:04.639Z,47.3029
2023-05-24T08:54:05.730Z,47.2387
2023-05-24T08:55:06.841Z,47.2254
2023-05-24T08:56:07.938Z,47.1045
2023-05-24T08:57:09.020Z,46.9610
2023-05-24T08:58:10.112Z,46.9067
2023-05-24T08:59:11.191Z,46.8465
2023-05-24T09:00:12.277Z,46.8064
2023-05-24T09:01:13.410Z,46.7412
2023-05-24T09:02:14.517Z,46.5730
2023-05-24T09:03:15.699Z,46.5415
2023-05-24T09:04:16.691Z,46.4538
2023-05-24T09:05:17.756Z,46.4062
2023-05-24T09:06:18.881Z,46.3463
2023-05-24T09:07:19.942Z,46.3394
2023-05-24T09:08:21.037Z,46.3066
2023-05-24T09:09:22.109Z,46.2792
2023-05-24T09:10:23.223Z,46.1939
2023-05-24T09:11:24.317Z,46.1855
2023-05-24T09:12:36.322Z,46.1423
2023-05-24T09:13:27.492Z,46.0969
2023-05-24T09:14:27.600Z,46.0667
2023-05-24T09:15:28.695Z,46.0418
2023-05-24T09:16:29.827Z,45.9682
2023-05-24T09:17:33.283Z,45.8743
2023-05-24T09:18:31.955Z,45.7969
2023-05-24T09:19:33.044Z,45.6998
2023-05-24T09:20:34.174Z,45.6085
2023-05-24T09:21:35.251Z,45.5399
2023-05-24T09:22:38.798Z,45.5229
2023-05-24T09:23:37.430Z,45.4792
2023-05-24T09:24:38.502Z,45.4395
2023-05-24T09:25:39.613Z,45.3968
2023-05-24T09:26:40.692Z,45.3233
2023-05-24T09:27:41.815Z,45.4137
2023-05-24T09:28:42.888Z,45.4406
2023-05-24T09:29:43.996Z,45.3356
2023-05-24T09:30:45.320Z,45.2432
2023-05-24T09:31:46.186Z,45.1227
2023-05-24T09:32:47.275Z,45.0689
2023-05-24T09:33:48.354Z,45.0449
2023-05-24T09:34:49.462Z,45.0716
2023-05-24T09:35:50.560Z,45.1476
2023-05-24T09:36:51.626Z,45.1487
2023-05-24T09:37:52.696Z,45.0582
2023-05-24T09:38:53.798Z,45.0080
2023-05-24T09:39:54.903Z,45.0052
2023-05-24T09:40:55.996Z,44.9819
2023-05-24T09:41:57.084Z,44.9591
2023-05-24T09:42:58.190Z,44.8837
2023-05-24T09:43:59.276Z,44.9261
2023-05-24T09:45:00.361Z,44.9101
2023-05-24T09:46:01.456Z,44.9253
2023-05-24T09:47:02.628Z,44.8744
2023-05-24T09:48:03.716Z,44.8671
2023-05-24T09:49:04.770Z,44.8768
2023-05-24T09:50:05.861Z,44.9539
2023-05-24T09:51:06.990Z,45.0871
2023-05-24T09:52:08.137Z,45.0840
2023-05-24T09:53:09.130Z,45.0630
2023-05-24T09:54:10.227Z,45.1101
2023-05-24T09:55:11.318Z,45.2139
2023-05-24T09:56:12.422Z,45.2894
2023-05-24T09:57:13.513Z,45.2298
2023-05-24T09:58:14.618Z,45.1180
2023-05-24T09:59:15.681Z,44.9782
2023-05-24T10:00:16.986Z,44.8995
2023-05-24T10:01:17.933Z,44.8240
2023-05-24T10:02:18.950Z,44.8702
2023-05-24T10:03:20.127Z,44.8505
2023-05-24T10:04:21.222Z,44.8449
2023-05-24T10:05:22.266Z,44.8251
2023-05-24T10:06:23.346Z,44.8293
2023-05-24T10:07:24.439Z,44.7300
2023-05-24T10:08:25.604Z,44.6940
2023-05-24T10:09:26.688Z,44.7633
2023-05-24T10:10:27.770Z,44.7750
2023-05-24T10:11:28.886Z,44.7157
2023-05-24T10:12:29.972Z,44.6766
2023-05-24T10:13:31.075Z,44.7485
2023-05-24T10:14:32.192Z,44.8063
2023-05-24T10:15:33.272Z,44.8415
2023-05-24T10:16:34.421Z,44.8419
2023-05-24T10:17:35.435Z,44.7520
2023-05-24T10:18:36.546Z,44.6869
2023-05-24T10:19:37.651Z,44.7125
2023-05-24T10:20:38.780Z,44.7823
2023-05-24T10:21:39.853Z,44.8372
2023-05-24T10:22:40.919Z,44.8729
2023-05-24T10:23:42.015Z,44.9245
2023-05-24T10:24:43.094Z,44.8804
2023-05-24T10:25:44.166Z,44.8173
2023-05-24T10:26:45.284Z,44.8314
2023-05-24T10:27:46.368Z,44.8079
2023-05-24T10:28:47.453Z,44.7345
2023-05-24T10:29:48.553Z,44.7497
2023-05-24T10:30:49.687Z,44.6962
2023-05-24T10:31:50.799Z,44.5831
2023-05-24T10:32:51.922Z,44.5485
2023-05-24T10:33:57.144Z,44.5542
2023-05-24T10:34:55.024Z,44.4465
2023-05-24T10:35:55.113Z,44.4418
2023-05-24T10:36:56.192Z,44.4586
2023-05-24T10:37:57.307Z,44.4693
2023-05-24T10:38:58.377Z,44.4913
2023-05-24T10:39:59.488Z,44.4158
2023-05-24T10:41:00.586Z,44.3032
2023-05-24T10:42:01.694Z,44.1792
2023-05-24T10:43:02.771Z,44.1178
2023-05-24T10:45:04.956Z,43.9442
2023-05-24T10:46:06.108Z,43.9941
2023-05-24T10:47:07.168Z,44.1030
2023-05-24T10:48:08.280Z,44.1426
2023-05-24T10:49:09.325Z,44.3270
2023-05-24T10:50:10.461Z,44.3631
2023-05-24T10:51:11.496Z,44.2660
2023-05-24T10:52:12.614Z,44.2537
2023-05-24T10:53:13.751Z,44.1926
2023-05-24T10:54:14.806Z,44.1611
2023-05-24T10:55:15.891Z,44.1720
2023-05-24T10:56:16.971Z,44.1374
2023-05-24T10:57:18.066Z,44.1960
2023-05-24T10:58:19.161Z,44.2981
2023-05-24T10:59:20.268Z,44.2900
2023-05-24T11:00:33.819Z,44.3398
2023-05-24T11:01:23.487Z,44.3614
2023-05-24T11:02:23.648Z,44.3891
2023-05-24T11:03:24.816Z,44.2885
2023-05-24T11:04:25.773Z,44.2586
2023-05-24T11:05:26.914Z,44.1566
2023-05-24T11:06:27.952Z,44.0652
2023-05-24T11:07:29.072Z,43.9905
2023-05-24T11:08:30.129Z,43.8900
2023-05-24T11:09:31.246Z,43.8602
2023-05-24T11:10:32.356Z,43.8538
2023-05-24T11:11:33.441Z,43.7716
2023-05-24T11:12:34.555Z,43.7706
2023-05-24T11:13:35.616Z,43.8075
2023-05-24T11:14:36.717Z,43.9182
2023-05-24T11:15:37.838Z,43.9969
2023-05-24T11:16:39.822Z,44.1391
2023-05-24T11:17:42.149Z,44.2714
2023-05-24T11:18:41.123Z,44.2511
2023-05-24T11:19:42.218Z,44.1477
2023-05-24T11:20:43.808Z,44.1013
2023-05-24T11:21:44.503Z,44.1683
2023-05-24T11:22:45.515Z,44.1806
2023-05-24T11:23:46.610Z,44.0953
2023-05-24T11:24:47.702Z,43.9249
2023-05-24T11:25:48.828Z,43.8307
2023-05-24T11:26:49.889Z,43.8128
2023-05-24T11:27:51.028Z,43.8422
2023-05-24T11:28:52.080Z,43.8209
2023-05-24T11:29:53.168Z,43.7621
2023-05-24T11:30:54.266Z,43.7094
2023-05-24T11:31:55.407Z,43.7574
2023-05-24T11:32:56.535Z,43.8674
2023-05-24T11:33:57.562Z,43.9077
2023-05-24T11:34:58.654Z,43.9226
2023-05-24T11:35:59.759Z,43.9404
2023-05-24T11:37:00.943Z,44.0338
2023-05-24T11:38:01.947Z,44.0956
2023-05-24T11:39:03.019Z,44.1139
2023-05-24T11:40:04.132Z,44.1416
2023-05-24T11:41:05.233Z,44.1817
2023-05-24T11:42:06.317Z,44.1306
2023-05-24T11:43:07.415Z,44.1184
2023-05-24T11:44:08.492Z,44.2111
2023-05-24T11:45:09.577Z,44.2599
2023-05-24T11:46:10.684Z,44.2419
2023-05-24T11:47:11.771Z,44.1393
2023-05-24T11:48:12.917Z,44.1395
2023-05-24T11:49:13.982Z,44.1092
2023-05-24T11:50:15.072Z,44.1140
2023-05-24T11:51:16.129Z,44.1123
2023-05-24T11:52:17.228Z,44.1771
2023-05-24T11:53:18.314Z,44.1926
2023-05-24T11:54:19.397Z,44.1741
2023-05-24T11:55:20.484Z,44.2904
2023-05-24T11:56:21.581Z,44.4243
2023-05-24T11:57:22.691Z,44.4987
2023-05-24T11:58:23.794Z,44.5721
2023-05-24T11:59:24.867Z,44.5747
2023-05-24T12:00:25.948Z,44.5450
2023-05-24T12:01:27.060Z,44.4506
2023-05-24T12:02:28.177Z,44.4375
2023-05-24T12:03:29.403Z,44.3779
2023-05-24T12:04:30.450Z,44.3446
2023-05-24T12:05:31.461Z,44.4527
2023-05-24T12:06:32.534Z,44.4955
2023-05-24T12:07:33.618Z,44.5387
2023-05-24T12:08:34.715Z,44.4860
2023-05-24T12:09:35.781Z,44.4387
2023-05-24T12:10:36.891Z,44.3127
2023-05-24T12:11:37.979Z,44.1673
2023-05-24T12:12:45.665Z,44.0632
2023-05-24T12:13:41.187Z,44.0153
2023-05-24T12:14:41.252Z,44.0295
2023-05-24T12:15:42.353Z,44.0250
2023-05-24T12:16:43.444Z,44.0956
2023-05-24T12:17:44.564Z,44.1829
2023-05-24T12:18:55.132Z,44.2959
2023-05-24T12:19:47.714Z,44.3484